createdAt,value
2022-11-19T00:02:13.242Z,8.70
2022-11-19T00:04:41.641Z,8.38
2022-11-19T00:07:10.090Z,9.32
2022-11-19T00:09:38.487Z,9.30
2022-11-19T00:12:25.040Z,8.30
2022-11-19T00:14:54.826Z,9.05
2022-11-19T00:17:23.258Z,10.35
2022-11-19T00:19:51.716Z,10.27
2022-11-19T00:22:20.165Z,9.85
2022-11-19T00:24:48.615Z,11.05
2022-11-19T00:27:17.105Z,11.70
2022-11-19T00:29:45.502Z,11.60
2022-11-19T00:32:15.356Z,12.60
2022-11-19T00:34:43.762Z,11.98
2022-11-19T00:37:12.194Z,12.02
2022-11-19T00:39:40.571Z,11.82
2022-11-19T00:42:08.989Z,12.18
2022-11-19T00:44:37.725Z,11.35
2022-11-19T00:47:06.306Z,10.18
2022-11-19T00:49:36.139Z,12.95
2022-11-19T00:52:04.983Z,12.15
2022-11-19T00:54:33.480Z,11.82
2022-11-19T00:57:01.964Z,11.18
2022-11-19T00:59:30.414Z,11.90
2022-11-19T01:01:58.967Z,11.32
2022-11-19T01:04:27.440Z,11.98
2022-11-19T01:06:57.347Z,12.35
2022-11-19T01:09:25.917Z,12.60
2022-11-19T01:11:54.371Z,11.55
2022-11-19T01:14:22.820Z,12.73
2022-11-19T01:16:51.277Z,12.93
2022-11-19T01:19:19.841Z,14.40
2022-11-19T01:21:48.371Z,12.82
2022-11-19T01:24:18.188Z,12.48
2022-11-19T01:26:46.649Z,13.50
2022-11-19T01:29:15.291Z,13.88
2022-11-19T01:31:43.723Z,14.18
2022-11-19T01:34:12.150Z,13.45
2022-11-19T01:36:40.599Z,15.35
2022-11-19T01:39:09.043Z,16.98
2022-11-19T01:41:38.819Z,16.50
2022-11-19T01:44:08.421Z,14.73
2022-11-19T01:46:37.665Z,17.83
2022-11-19T01:49:08.273Z,18.70
2022-11-19T01:51:37.423Z,18.50
2022-11-19T01:54:08.015Z,20.10
2022-11-19T01:56:37.396Z,17.95
2022-11-19T01:59:09.325Z,19.67
2022-11-19T02:01:37.864Z,19.25
2022-11-19T02:04:06.779Z,18.83
2022-11-19T02:06:35.749Z,20.88
2022-11-19T02:09:04.241Z,20.92
2022-11-19T02:11:39.184Z,20.60
2022-11-19T02:14:17.393Z,21.25
2022-11-19T02:16:50.597Z,19.90
2022-11-19T02:19:26.855Z,19.33
2022-11-19T02:22:02.411Z,19.70
2022-11-19T02:24:41.266Z,17.60
2022-11-19T02:27:19.593Z,20.60
2022-11-19T02:30:00.185Z,18.63
2022-11-19T02:32:31.808Z,19.80
2022-11-19T02:35:03.597Z,18.20
2022-11-19T02:37:34.758Z,19.80
2022-11-19T02:40:06.533Z,21.35
2022-11-19T02:42:37.192Z,21.35
2022-11-19T02:45:10.516Z,22.63
2022-11-19T02:47:41.058Z,21.08
2022-11-19T02:50:11.171Z,20.88
2022-11-19T02:52:40.202Z,21.55
2022-11-19T02:55:09.180Z,22.77
2022-11-19T02:57:38.266Z,23.95
2022-11-19T03:00:26.828Z,21.45
2022-11-19T03:03:27.159Z,22.70
2022-11-19T03:05:58.964Z,24.50
2022-11-19T03:08:28.037Z,26.10
2022-11-19T03:11:04.833Z,22.17
2022-11-19T03:13:55.784Z,23.42
2022-11-19T03:16:52.232Z,24.88
2022-11-19T03:19:25.166Z,24.10
2022-11-19T03:21:57.014Z,26.10
2022-11-19T03:24:29.956Z,24.17
2022-11-19T03:27:00.881Z,24.13
2022-11-19T03:29:30.082Z,22.55
2022-11-19T03:32:01.695Z,24.23
2022-11-19T03:34:32.271Z,26.95
2022-11-19T03:37:02.296Z,25.55
2022-11-19T03:39:31.323Z,26.25
2022-11-19T03:41:59.949Z,25.67
2022-11-19T03:44:31.018Z,26.48
2022-11-19T03:47:02.708Z,25.48
2022-11-19T03:49:32.707Z,26.50
2022-11-19T03:52:03.680Z,24.83
2022-11-19T03:54:32.277Z,33.03
2022-11-19T03:57:01.524Z,24.55
2022-11-19T03:59:30.566Z,25.77
2022-11-19T04:02:03.445Z,28.40
2022-11-19T04:04:38.235Z,27.45
2022-11-19T04:07:07.829Z,31.15
2022-11-19T04:09:36.377Z,30.25
2022-11-19T04:12:04.836Z,28.40
2022-11-19T04:14:33.282Z,28.63
2022-11-19T04:17:03.161Z,31.48
2022-11-19T04:19:31.573Z,28.67
2022-11-19T04:22:00.041Z,28.90
2022-11-19T04:24:28.437Z,26.30
2022-11-19T04:26:56.902Z,27.25
2022-11-19T04:29:25.282Z,27.52
2022-11-19T04:31:53.678Z,26.65
2022-11-19T04:34:23.406Z,29.27
2022-11-19T04:36:51.814Z,26.83
2022-11-19T04:39:20.682Z,27.33
2022-11-19T04:41:49.359Z,26.83
2022-11-19T04:44:17.721Z,27.30
2022-11-19T04:46:46.128Z,28.17
2022-11-19T04:49:14.485Z,30.92
2022-11-19T04:51:44.287Z,26.73
2022-11-19T04:54:13.195Z,24.75
2022-11-19T04:56:41.598Z,25.58
2022-11-19T04:59:10.136Z,25.83
2022-11-19T05:01:38.697Z,26.50
2022-11-19T05:04:07.184Z,24.48
2022-11-19T05:06:35.563Z,27.52
2022-11-19T05:09:05.306Z,24.90
2022-11-19T05:11:41.038Z,24.95
2022-11-19T05:14:09.519Z,24.17
2022-11-19T05:16:37.980Z,24.30
2022-11-19T05:19:06.399Z,25.73
2022-11-19T05:21:34.822Z,25.70
2022-11-19T05:24:03.275Z,25.85
2022-11-19T05:26:33.015Z,21.90
2022-11-19T05:29:01.389Z,24.23
2022-11-19T05:31:29.819Z,23.10
2022-11-19T05:33:58.207Z,24.50
2022-11-19T05:36:26.613Z,27.10
2022-11-19T05:38:55.102Z,28.13
2022-11-19T05:41:23.526Z,26.23
2022-11-19T05:43:53.264Z,26.83
2022-11-19T05:46:21.701Z,24.38
2022-11-19T05:48:50.158Z,29.42
2022-11-19T05:51:18.602Z,24.48
2022-11-19T05:53:46.988Z,24.55
2022-11-19T05:56:15.385Z,26.45
2022-11-19T05:58:43.785Z,28.55
2022-11-19T06:01:13.626Z,25.52
2022-11-19T06:03:42.075Z,25.13
2022-11-19T06:06:10.528Z,25.23
2022-11-19T06:08:38.932Z,28.35
2022-11-19T06:11:07.468Z,24.40
2022-11-19T06:13:35.903Z,27.25
2022-11-19T06:16:04.421Z,26.63
2022-11-19T06:18:34.197Z,27.17
2022-11-19T06:21:02.610Z,27.50
2022-11-19T06:23:31.483Z,28.77
2022-11-19T06:25:59.906Z,25.92
2022-11-19T06:28:28.253Z,26.23
2022-11-19T06:30:56.698Z,26.98
2022-11-19T06:33:25.083Z,25.65
2022-11-19T06:35:54.896Z,28.60
2022-11-19T06:38:23.294Z,25.17
2022-11-19T06:40:51.706Z,28.02
2022-11-19T06:43:20.074Z,27.38
2022-11-19T06:45:48.674Z,26.77
2022-11-19T06:48:17.071Z,29.90
2022-11-19T06:50:46.705Z,29.35
2022-11-19T06:53:16.471Z,30.80
2022-11-19T06:55:44.908Z,34.47
2022-11-19T06:58:14.544Z,40.83
2022-11-19T07:00:43.027Z,35.65
2022-11-19T07:03:11.378Z,33.53
2022-11-19T07:05:39.798Z,31.63
2022-11-19T07:08:08.204Z,29.75
2022-11-19T07:10:37.972Z,32.35
2022-11-19T07:13:06.412Z,32.85
2022-11-19T07:18:17.428Z,32.08
2022-11-19T07:20:47.653Z,32.72
2022-11-19T07:23:16.039Z,26.25
2022-11-19T07:25:45.789Z,29.42
2022-11-19T07:28:14.229Z,30.52
2022-11-19T07:30:42.594Z,31.02
2022-11-19T07:33:10.983Z,34.13
2022-11-19T07:35:40.500Z,30.40
2022-11-19T07:38:08.931Z,33.28
2022-11-19T07:40:37.338Z,32.95
2022-11-19T07:43:06.164Z,30.92
2022-11-19T07:45:34.581Z,34.33
2022-11-19T07:48:02.989Z,28.98
2022-11-19T07:50:31.516Z,29.98
2022-11-19T07:53:00.202Z,29.60
2022-11-19T07:55:28.629Z,31.80
2022-11-19T07:57:57.049Z,33.42
2022-11-19T08:00:26.920Z,30.27
2022-11-19T08:02:55.371Z,31.55
2022-11-19T08:05:23.812Z,28.63
2022-11-19T08:07:53.345Z,30.48
2022-11-19T08:10:22.154Z,29.20
2022-11-19T08:13:03.247Z,30.98
2022-11-19T08:15:33.388Z,31.13
2022-11-19T08:18:13.161Z,31.20
2022-11-19T08:20:42.253Z,26.92
2022-11-19T08:23:10.686Z,32.88
2022-11-19T08:25:39.088Z,27.92
2022-11-19T08:28:07.801Z,31.42
2022-11-19T08:30:38.094Z,32.58
2022-11-19T08:33:09.743Z,32.08
2022-11-19T08:35:38.121Z,34.40
2022-11-19T08:38:06.653Z,38.58
2022-11-19T08:40:35.253Z,29.75
2022-11-19T08:43:02.762Z,29.95
2022-11-19T08:45:31.875Z,26.17
2022-11-19T08:48:02.405Z,32.05
2022-11-19T08:50:31.739Z,32.47
2022-11-19T08:53:00.716Z,32.70
2022-11-19T08:55:29.832Z,34.47
2022-11-19T08:58:02.075Z,36.03
2022-11-19T09:00:30.636Z,31.77
2022-11-19T09:02:59.123Z,30.90
2022-11-19T09:05:29.152Z,31.92
2022-11-19T09:07:57.569Z,43.25
2022-11-19T09:10:26.069Z,35.65
2022-11-19T09:12:54.526Z,33.75
2022-11-19T09:15:23.053Z,32.67
2022-11-19T09:17:51.451Z,30.67
2022-11-19T09:20:20.041Z,33.08
2022-11-19T09:22:49.941Z,31.92
2022-11-19T09:25:18.488Z,32.10
2022-11-19T09:27:46.884Z,29.55
2022-11-19T09:30:15.968Z,26.30
2022-11-19T09:32:44.414Z,30.48
2022-11-19T09:35:13.941Z,29.23
2022-11-19T09:37:42.378Z,32.00
2022-11-19T09:40:18.065Z,30.13
2022-11-19T09:42:52.702Z,31.30
2022-11-19T09:45:24.237Z,31.73
2022-11-19T09:48:01.394Z,28.27
2022-11-19T09:50:31.817Z,30.27
2022-11-19T09:53:09.138Z,28.67
2022-11-19T09:55:40.199Z,30.48
2022-11-19T09:58:12.640Z,29.67
2022-11-19T10:00:41.094Z,28.73
2022-11-19T10:03:14.094Z,38.00
2022-11-19T10:05:47.704Z,32.95
2022-11-19T10:08:24.291Z,32.83
2022-11-19T10:11:01.001Z,29.23
2022-11-19T10:13:34.190Z,34.72
2022-11-19T10:16:08.190Z,37.53
2022-11-19T10:18:42.039Z,35.25
2022-11-19T10:21:12.683Z,31.50
2022-11-19T10:23:52.920Z,30.92
2022-11-19T10:26:26.493Z,28.38
2022-11-19T10:28:56.800Z,33.00
2022-11-19T10:31:29.538Z,32.80
2022-11-19T10:34:01.586Z,32.05
2022-11-19T10:36:33.258Z,34.00
2022-11-19T10:39:03.995Z,28.48
2022-11-19T10:41:36.813Z,29.27
2022-11-19T10:44:11.922Z,30.50
2022-11-19T10:46:41.575Z,32.03
2022-11-19T10:49:10.884Z,32.05
2022-11-19T10:51:42.283Z,28.83
2022-11-19T10:54:16.943Z,27.80
2022-11-19T10:56:47.685Z,26.40
2022-11-19T10:59:19.750Z,28.02
2022-11-19T11:01:49.618Z,27.25
2022-11-19T11:04:20.383Z,28.23
2022-11-19T11:06:52.984Z,24.13
2022-11-19T11:09:34.793Z,25.85
2022-11-19T11:12:23.687Z,26.75
2022-11-19T11:14:55.121Z,25.35
2022-11-19T11:17:24.616Z,26.73
2022-11-19T11:20:00.396Z,24.85
2022-11-19T11:22:31.207Z,27.27
2022-11-19T11:25:06.788Z,31.25
2022-11-19T11:27:37.476Z,34.85
2022-11-19T11:30:07.117Z,34.50
2022-11-19T11:32:35.746Z,24.83
2022-11-19T11:35:08.264Z,29.65
2022-11-19T11:37:38.585Z,26.52
2022-11-19T11:40:08.201Z,27.63
2022-11-19T11:42:38.326Z,27.48
2022-11-19T11:45:09.262Z,32.95
2022-11-19T11:47:40.166Z,28.63
2022-11-19T11:50:09.486Z,33.03
2022-11-19T11:52:41.315Z,28.15
2022-11-19T11:55:14.887Z,29.38
2022-11-19T11:57:58.152Z,33.78
2022-11-19T12:00:41.589Z,34.05
2022-11-19T12:03:22.721Z,36.17
2022-11-19T12:06:03.691Z,31.58
2022-11-19T12:09:03.102Z,25.23
2022-11-19T12:11:49.897Z,31.95
2022-11-19T12:14:25.945Z,30.80
2022-11-19T12:17:04.881Z,30.13
2022-11-19T12:19:53.860Z,29.80
2022-11-19T12:22:29.593Z,30.95
2022-11-19T12:25:40.351Z,30.55
2022-11-19T12:28:16.739Z,27.95
2022-11-19T12:30:53.525Z,26.85
2022-11-19T12:33:46.821Z,27.60
2022-11-19T12:36:18.540Z,44.08
2022-11-19T12:39:02.940Z,30.10
2022-11-19T12:42:06.194Z,33.20
2022-11-19T12:44:55.100Z,27.23
2022-11-19T12:47:51.956Z,31.67
2022-11-19T12:50:56.340Z,40.45
2022-11-19T12:53:44.247Z,34.08
2022-11-19T12:56:35.014Z,29.25
2022-11-19T12:59:12.394Z,26.75
2022-11-19T13:01:51.880Z,34.75
2022-11-19T13:04:30.798Z,33.88
2022-11-19T13:07:04.305Z,30.77
2022-11-19T13:09:40.096Z,32.63
2022-11-19T13:12:21.342Z,31.90
2022-11-19T13:14:55.084Z,34.78
2022-11-19T13:17:31.551Z,47.55
2022-11-19T13:20:11.546Z,39.15
2022-11-19T13:22:46.281Z,35.15
2022-11-19T13:25:19.339Z,34.20
2022-11-19T13:33:12.494Z,56.78
2022-11-19T13:35:46.863Z,51.30
2022-11-19T13:38:25.890Z,45.92
2022-11-19T13:41:02.689Z,49.72
2022-11-19T13:43:48.669Z,38.28
2022-11-19T13:46:23.404Z,49.25
2022-11-19T13:48:56.524Z,41.33
2022-11-19T13:51:28.101Z,32.90
2022-11-19T13:54:02.957Z,39.25
2022-11-19T13:56:39.897Z,40.55
2022-11-19T13:59:09.195Z,47.15
2022-11-19T14:01:45.342Z,32.53
2022-11-19T14:04:23.266Z,33.63
2022-11-19T14:06:57.988Z,38.55
2022-11-19T14:09:31.773Z,33.65
2022-11-19T14:12:05.426Z,28.77
2022-11-19T14:15:00.733Z,33.83
2022-11-19T14:17:51.192Z,35.17
2022-11-19T14:20:55.225Z,34.72
2022-11-19T14:24:01.482Z,29.25
2022-11-19T14:26:52.396Z,29.15
2022-11-19T14:29:39.669Z,31.60
2022-11-19T14:32:30.458Z,37.17
2022-11-19T14:35:32.063Z,31.50
2022-11-19T14:38:04.627Z,29.52
2022-11-19T14:40:34.405Z,28.98
2022-11-19T14:43:39.450Z,31.38
2022-11-19T14:46:27.028Z,31.25
2022-11-19T14:49:01.915Z,30.13
2022-11-19T14:51:32.277Z,29.42
2022-11-19T14:54:04.438Z,27.77
2022-11-19T14:56:34.341Z,27.95
2022-11-19T14:59:07.270Z,32.47
2022-11-19T15:01:50.774Z,34.83
2022-11-19T15:04:24.522Z,30.77
2022-11-19T15:06:56.488Z,30.27
2022-11-19T15:09:43.521Z,28.27
2022-11-19T15:12:12.032Z,27.10
2022-11-19T15:15:02.606Z,28.25
2022-11-19T15:17:31.360Z,29.35
2022-11-19T15:20:10.605Z,30.70
2022-11-19T15:22:46.069Z,28.88
2022-11-19T15:25:33.804Z,28.27
2022-11-19T15:28:20.217Z,33.92
2022-11-19T15:31:00.054Z,33.85
2022-11-19T15:33:39.990Z,29.27
2022-11-19T15:36:23.347Z,33.28
2022-11-19T15:38:57.061Z,34.40
2022-11-19T15:41:26.289Z,29.67
2022-11-19T15:43:56.159Z,31.20
2022-11-19T15:46:30.590Z,31.20
2022-11-19T15:49:02.276Z,36.95
2022-11-19T15:51:31.290Z,32.75
2022-11-19T15:54:01.830Z,29.23
2022-11-19T15:56:31.572Z,29.92
2022-11-19T15:59:00.243Z,31.13
2022-11-19T16:01:29.403Z,28.42
2022-11-19T16:03:57.883Z,28.10
2022-11-19T16:06:27.628Z,28.70
2022-11-19T16:08:57.549Z,31.75
2022-11-19T16:11:47.041Z,32.78
2022-11-19T16:14:40.110Z,30.30
2022-11-19T16:17:39.890Z,27.13
2022-11-19T16:20:22.237Z,37.80
2022-11-19T16:22:56.398Z,31.80
2022-11-19T16:25:28.019Z,31.27
2022-11-19T16:27:58.855Z,34.47
2022-11-19T16:30:28.375Z,35.63
2022-11-19T16:32:59.231Z,32.63
2022-11-19T16:35:29.370Z,34.10
2022-11-19T16:37:58.067Z,30.52
2022-11-19T16:40:26.720Z,26.92
2022-11-19T16:42:55.470Z,26.30
2022-11-19T16:45:27.142Z,32.00
2022-11-19T16:47:57.387Z,26.75
2022-11-19T16:50:31.721Z,27.27
2022-11-19T16:53:00.571Z,25.23
2022-11-19T16:55:43.891Z,27.63
2022-11-19T16:58:17.183Z,24.88
2022-11-19T17:00:49.674Z,16.13
2022-11-19T17:03:19.623Z,23.20
2022-11-19T17:05:48.544Z,27.13
2022-11-19T17:08:22.749Z,19.23
2022-11-19T17:11:11.164Z,23.33
2022-11-19T17:13:39.930Z,20.13
2022-11-19T17:16:19.995Z,22.73
2022-11-19T17:18:48.503Z,19.33
2022-11-19T17:21:24.484Z,23.45
2022-11-19T17:23:53.617Z,26.92
2022-11-19T17:26:25.666Z,26.60
2022-11-19T17:29:02.004Z,27.65
2022-11-19T17:31:31.821Z,24.23
2022-11-19T17:34:09.584Z,24.27
2022-11-19T17:36:39.028Z,21.58
2022-11-19T17:39:10.713Z,21.42
2022-11-19T17:41:57.048Z,17.77
2022-11-19T17:44:40.312Z,21.00
2022-11-19T17:47:24.046Z,19.75
2022-11-19T17:52:25.589Z,17.58
2022-11-19T17:54:55.171Z,23.23
2022-11-19T17:57:23.611Z,22.27
2022-11-19T17:59:52.234Z,21.02
2022-11-19T18:02:22.648Z,18.27
2022-11-19T18:04:51.270Z,17.05
2022-11-19T18:07:19.769Z,16.90
2022-11-19T18:10:03.455Z,18.80
2022-11-19T18:12:31.853Z,19.08
2022-11-19T18:15:02.340Z,18.17
2022-11-19T18:17:32.223Z,16.27
2022-11-19T18:20:00.678Z,19.65
2022-11-19T18:22:29.084Z,21.20
2022-11-19T18:24:57.517Z,19.08
2022-11-19T18:27:26.023Z,18.50
2022-11-19T18:29:54.542Z,17.38
2022-11-19T18:32:22.998Z,20.48
2022-11-19T18:34:52.987Z,19.73
2022-11-19T18:37:21.420Z,22.05
2022-11-19T18:39:49.857Z,21.20
2022-11-19T18:42:18.303Z,20.85
2022-11-19T18:44:45.847Z,21.92
2022-11-19T18:47:15.440Z,29.40
2022-11-19T18:49:44.178Z,29.52
2022-11-19T18:52:15.808Z,26.15
2022-11-19T18:54:44.471Z,27.65
2022-11-19T18:57:13.630Z,25.65
2022-11-19T18:59:42.888Z,24.65
2022-11-19T19:02:11.927Z,24.80
2022-11-19T19:04:40.486Z,30.48
2022-11-19T19:07:09.020Z,29.90
2022-11-19T19:09:38.851Z,28.67
2022-11-19T19:12:18.850Z,30.00
2022-11-19T19:14:48.265Z,29.10
2022-11-19T19:17:17.759Z,28.05
2022-11-19T19:19:46.600Z,25.30
2022-11-19T19:22:15.238Z,34.55
2022-11-19T19:24:45.133Z,28.70
2022-11-19T19:27:13.661Z,30.13
2022-11-19T19:29:42.114Z,24.40
2022-11-19T19:32:10.801Z,28.30
2022-11-19T19:34:39.283Z,30.55
2022-11-19T19:37:07.785Z,31.25
2022-11-19T19:39:36.277Z,30.48
2022-11-19T19:42:06.195Z,30.30
2022-11-19T19:44:34.701Z,31.23
2022-11-19T19:47:03.229Z,25.95
2022-11-19T19:49:36.022Z,26.15
2022-11-19T19:52:07.095Z,26.00
2022-11-19T19:54:35.633Z,24.95
2022-11-19T19:57:04.143Z,24.50
2022-11-19T19:59:33.998Z,25.60
2022-11-19T20:02:02.531Z,27.92
2022-11-19T20:04:30.991Z,25.25
2022-11-19T20:06:59.563Z,24.67
2022-11-19T20:09:28.337Z,25.73
2022-11-19T20:11:56.882Z,27.35
2022-11-19T20:14:25.350Z,32.38
2022-11-19T20:17:00.584Z,24.92
2022-11-19T20:19:28.957Z,28.08
2022-11-19T20:21:57.391Z,25.58
2022-11-19T20:24:25.847Z,27.55
2022-11-19T20:26:54.278Z,26.90
2022-11-19T20:29:23.815Z,32.10
2022-11-19T20:31:55.661Z,28.88
2022-11-19T20:34:25.488Z,28.33
2022-11-19T20:36:54.408Z,27.40
2022-11-19T20:39:24.240Z,27.73
2022-11-19T20:42:10.766Z,25.20
2022-11-19T20:44:39.237Z,26.13
2022-11-19T20:47:08.907Z,29.20
2022-11-19T20:49:40.084Z,29.38
2022-11-19T20:52:08.672Z,29.48
2022-11-19T20:54:37.390Z,26.33
2022-11-19T20:57:07.144Z,25.40
2022-11-19T20:59:35.601Z,28.38
2022-11-19T21:02:04.428Z,27.92
2022-11-19T21:04:36.488Z,27.95
2022-11-19T21:07:07.271Z,31.15
2022-11-19T21:09:36.270Z,27.80
2022-11-19T21:12:04.870Z,30.05
2022-11-19T21:14:33.338Z,34.78
2022-11-19T21:17:01.771Z,28.85
2022-11-19T21:19:30.208Z,28.52
2022-11-19T21:21:58.837Z,30.13
2022-11-19T21:24:28.647Z,28.77
2022-11-19T21:26:57.390Z,30.23
2022-11-19T21:29:25.815Z,30.95
2022-11-19T21:31:54.317Z,29.77
2022-11-19T21:34:22.789Z,29.50
2022-11-19T21:36:53.107Z,29.60
2022-11-19T21:39:21.896Z,29.58
2022-11-19T21:41:51.999Z,30.70
2022-11-19T21:44:21.995Z,34.72
2022-11-19T21:46:50.729Z,33.58
2022-11-19T21:49:19.798Z,42.08
2022-11-19T21:51:49.094Z,36.20
2022-11-19T21:54:17.597Z,31.15
2022-11-19T21:56:46.019Z,32.53
2022-11-19T21:59:15.926Z,34.30
2022-11-19T22:01:44.295Z,30.27
2022-11-19T22:04:13.688Z,33.92
2022-11-19T22:06:42.756Z,30.33
2022-11-19T22:09:11.221Z,28.63
2022-11-19T22:11:39.612Z,29.55
2022-11-19T22:14:09.387Z,30.02
2022-11-19T22:16:40.041Z,33.30
2022-11-19T22:19:08.522Z,29.67
2022-11-19T22:21:37.180Z,32.40
2022-11-19T22:24:05.802Z,30.20
2022-11-19T22:26:34.267Z,30.10
2022-11-19T22:29:02.826Z,29.25
2022-11-19T22:31:31.241Z,28.88
2022-11-19T22:34:01.018Z,33.55
2022-11-19T22:36:33.233Z,28.70
2022-11-19T22:39:02.972Z,28.67
2022-11-19T22:41:31.373Z,31.25
2022-11-19T22:44:00.167Z,34.47
2022-11-19T22:46:28.813Z,31.30
2022-11-19T22:48:57.255Z,29.42
2022-11-19T22:51:27.425Z,30.92
2022-11-19T22:53:56.398Z,33.47
2022-11-19T22:56:25.511Z,31.52
2022-11-19T22:58:54.574Z,29.55
2022-11-19T23:01:24.632Z,29.05
2022-11-19T23:03:53.637Z,29.77
2022-11-19T23:06:23.058Z,29.20
2022-11-19T23:08:53.130Z,30.80
2022-11-19T23:11:43.336Z,30.85
2022-11-19T23:14:12.541Z,30.80
2022-11-19T23:16:41.006Z,34.17
2022-11-19T23:19:10.029Z,32.97
2022-11-19T23:21:38.798Z,32.55
2022-11-19T23:24:09.607Z,31.95
2022-11-19T23:26:38.240Z,32.08
2022-11-19T23:29:06.711Z,31.60
2022-11-19T23:31:35.861Z,30.30
2022-11-19T23:34:04.338Z,30.80
2022-11-19T23:36:33.320Z,32.42
2022-11-19T23:39:02.010Z,32.67
2022-11-19T23:41:32.812Z,31.58
2022-11-19T23:44:01.211Z,29.40
2022-11-19T23:46:30.649Z,31.25
2022-11-19T23:48:59.803Z,29.63
2022-11-19T23:51:29.794Z,32.63
2022-11-19T23:53:58.415Z,29.65
2022-11-19T23:56:27.469Z,31.40
2022-11-19T23:58:57.267Z,30.95
